Time;durP1;ratioP1;P1;durP2;ratioP2;P2;SDS_P1;SDS_P2;PMS_P1;PMS_P2;Temp;Humidity;BMP_temperature;BMP_pressure;BME280_temperature;BME280_humidity;BME280_pressure;Samples;Min_cycle;Max_cycle;Signal;HPM_P1;HPM_P2
2021/07/02 00:02:16;;;;;;;9.73;5.17;;;;;;;;;;5071791;28;21264;-77
2021/07/02 00:04:53;;;;;;;9.67;5.83;;;;;;;;;;5072419;28;20805;-77
2021/07/02 00:07:30;;;;;;;6.40;5.10;;;;;;;;;;5112853;27;20892;-77
2021/07/02 00:10:07;;;;;;;12.57;5.23;;;;;;;;;;5113320;27;20810;-77
2021/07/02 00:12:44;;;;;;;6.23;4.80;;;;;;;;;;5133135;27;20816;-77
2021/07/02 00:15:21;;;;;;;7.50;4.97;;;;;;;;;;5113401;27;20812;-77
2021/07/02 00:17:58;;;;;;;7.03;5.27;;;;;;;;;;5133576;27;21423;-77
2021/07/02 00:20:35;;;;;;;6.80;5.23;;;;;;;;;;5073094;28;21235;-79
2021/07/02 00:23:11;;;;;;;10.63;6.20;;;;;;;;;;5073002;28;20803;-77
2021/07/02 00:25:47;;;;;;;7.23;5.17;;;;;;;;;;5113704;27;21372;-78
2021/07/02 00:28:25;;;;;;;9.57;5.57;;;;;;;;;;5134064;27;21259;-77
2021/07/02 00:31:03;;;;;;;8.30;5.50;;;;;;;;;;5113594;27;20814;-78
2021/07/02 00:33:39;;;;;;;7.57;5.50;;;;;;;;;;5113691;27;20830;-77
2021/07/02 00:36:15;;;;;;;6.13;4.77;;;;;;;;;;5133774;27;21207;-77
2021/07/02 00:38:53;;;;;;;10.67;5.23;;;;;;;;;;5072027;28;20865;-77
2021/07/02 00:41:30;;;;;;;9.50;5.73;;;;;;;;;;5132861;27;20816;-77
2021/07/02 00:44:08;;;;;;;10.77;5.00;;;;;;;;;;5111422;27;20829;-78
2021/07/02 00:46:45;;;;;;;6.80;4.97;;;;;;;;;;5111577;27;20792;-77
2021/07/02 00:49:22;;;;;;;7.50;4.67;;;;;;;;;;5071585;28;21376;-77
2021/07/02 00:51:59;;;;;;;8.93;5.80;;;;;;;;;;5071038;28;20830;-78
2021/07/02 01:09:09;;;;;;;8.07;5.10;;;;;;;;;;5071255;28;20207;-76
2021/07/02 01:11:47;;;;;;;9.40;5.43;;;;;;;;;;5072420;28;20833;-77
2021/07/02 01:14:25;;;;;;;8.53;4.80;;;;;;;;;;5113121;27;20811;-77
2021/07/02 01:17:05;;;;;;;9.37;5.13;;;;;;;;;;5111830;27;20837;-78
2021/07/02 01:19:48;;;;;;;11.40;5.33;;;;;;;;;;5072402;28;20807;-78
2021/07/02 01:22:27;;;;;;;8.03;5.40;;;;;;;;;;5112108;27;20804;-77
2021/07/02 01:25:08;;;;;;;6.10;4.90;;;;;;;;;;5112895;27;20866;-77
2021/07/02 01:27:46;;;;;;;12.07;5.47;;;;;;;;;;5111940;27;20881;-77
2021/07/02 01:30:26;;;;;;;7.93;5.20;;;;;;;;;;5072034;28;20829;-78
2021/07/02 01:33:04;;;;;;;9.63;5.17;;;;;;;;;;5112787;27;20799;-77
2021/07/02 01:35:42;;;;;;;8.10;5.43;;;;;;;;;;5132862;27;20848;-78
2021/07/02 01:38:22;;;;;;;7.17;5.40;;;;;;;;;;5112068;27;20820;-77
2021/07/02 01:41:03;;;;;;;7.53;5.07;;;;;;;;;;5112401;27;20822;-77
2021/07/02 01:43:40;;;;;;;7.23;5.33;;;;;;;;;;5112856;27;20848;-77
2021/07/02 01:46:18;;;;;;;6.37;5.30;;;;;;;;;;5112321;27;20841;-77
2021/07/02 01:48:56;;;;;;;10.53;5.40;;;;;;;;;;5071397;28;20873;-77
2021/07/02 01:51:36;;;;;;;6.60;4.90;;;;;;;;;;5072036;28;21268;-77
2021/07/02 01:54:12;;;;;;;9.07;5.80;;;;;;;;;;5132923;27;20798;-77
2021/07/02 01:56:51;;;;;;;7.53;4.73;;;;;;;;;;5112088;27;20861;-77
2021/07/02 01:59:34;;;;;;;9.53;5.03;;;;;;;;;;5112388;27;20864;-77
2021/07/02 02:02:15;;;;;;;8.90;5.20;;;;;;;;;;5133087;27;20808;-77
2021/07/02 02:04:55;;;;;;;9.67;5.50;;;;;;;;;;5112615;27;21450;-77
2021/07/02 02:07:31;;;;;;;8.97;5.40;;;;;;;;;;5131771;27;20825;-77
2021/07/02 02:10:09;;;;;;;6.20;4.80;;;;;;;;;;5111338;27;20818;-77
2021/07/02 02:12:46;;;;;;;6.07;4.23;;;;;;;;;;5111922;27;20795;-77
2021/07/02 02:15:23;;;;;;;6.77;5.03;;;;;;;;;;5111802;27;20838;-78
2021/07/02 02:18:04;;;;;;;8.73;5.00;;;;;;;;;;5131343;27;20845;-77
2021/07/02 02:20:45;;;;;;;6.83;4.97;;;;;;;;;;5111817;27;20830;-77
2021/07/02 02:23:22;;;;;;;7.30;5.30;;;;;;;;;;5071045;28;20795;-77
2021/07/02 02:25:59;;;;;;;12.60;5.10;;;;;;;;;;5070853;28;20849;-78
2021/07/02 02:28:37;;;;;;;6.27;4.67;;;;;;;;;;5110991;27;20838;-77
2021/07/02 02:31:14;;;;;;;9.47;5.20;;;;;;;;;;5132413;27;20804;-77
2021/07/02 02:33:54;;;;;;;10.77;5.77;;;;;;;;;;5111718;27;20796;-77
2021/07/02 02:36:30;;;;;;;8.63;4.77;;;;;;;;;;5145156;22;20877;-74
2021/07/02 02:39:07;;;;;;;5.87;4.77;;;;;;;;;;5070440;28;21205;-74
2021/07/02 02:41:47;;;;;;;9.57;5.10;;;;;;;;;;5111915;27;20792;-75
2021/07/02 02:44:23;;;;;;;8.50;5.30;;;;;;;;;;5111733;27;21232;-74
2021/07/02 02:47:02;;;;;;;8.57;5.27;;;;;;;;;;5111224;27;21303;-74
2021/07/02 02:49:38;;;;;;;6.93;4.90;;;;;;;;;;5069986;28;20819;-75
2021/07/02 02:52:15;;;;;;;7.80;5.17;;;;;;;;;;5111877;27;21234;-75
2021/07/02 02:54:51;;;;;;;9.37;5.00;;;;;;;;;;5070778;28;21279;-75
2021/07/02 02:57:28;;;;;;;8.03;4.63;;;;;;;;;;5066837;28;20876;-74
2021/07/02 03:00:07;;;;;;;5.70;4.77;;;;;;;;;;5111894;27;20830;-75
2021/07/02 03:02:44;;;;;;;7.77;5.10;;;;;;;;;;5111313;27;20853;-74
2021/07/02 03:05:23;;;;;;;6.90;4.63;;;;;;;;;;5111672;27;20853;-74
2021/07/02 03:07:59;;;;;;;8.17;4.57;;;;;;;;;;5102767;27;21286;-74
2021/07/02 03:10:36;;;;;;;9.43;4.73;;;;;;;;;;5091224;27;21169;-75
2021/07/02 03:13:14;;;;;;;8.57;5.07;;;;;;;;;;5111458;27;21283;-74
2021/07/02 03:15:52;;;;;;;6.90;4.50;;;;;;;;;;5071293;28;20826;-75
2021/07/02 03:18:29;;;;;;;8.43;4.80;;;;;;;;;;5111062;27;20823;-74
2021/07/02 03:21:08;;;;;;;6.43;4.30;;;;;;;;;;5173956;27;20860;-74
2021/07/02 03:23:45;;;;;;;9.53;4.93;;;;;;;;;;5111341;27;20821;-75
2021/07/02 03:26:23;;;;;;;7.50;4.87;;;;;;;;;;5111505;27;20881;-74
2021/07/02 03:29:04;;;;;;;8.87;4.97;;;;;;;;;;5069931;28;21493;-75
2021/07/02 03:31:41;;;;;;;6.67;5.03;;;;;;;;;;5071306;28;21252;-74
2021/07/02 03:34:18;;;;;;;10.13;5.47;;;;;;;;;;5111834;27;20861;-75
2021/07/02 03:36:55;;;;;;;6.03;4.77;;;;;;;;;;5070726;28;20850;-74
2021/07/02 03:39:31;;;;;;;7.60;4.57;;;;;;;;;;5111425;27;21458;-75
2021/07/02 03:42:08;;;;;;;7.23;4.53;;;;;;;;;;5071313;28;20857;-75
2021/07/02 03:44:44;;;;;;;7.60;5.20;;;;;;;;;;5070371;28;21256;-75
2021/07/02 03:47:23;;;;;;;7.47;5.03;;;;;;;;;;5108092;27;20867;-75
2021/07/02 03:49:59;;;;;;;6.30;4.90;;;;;;;;;;5091176;27;21459;-74
2021/07/02 03:52:38;;;;;;;8.87;4.80;;;;;;;;;;5071331;28;20827;-75
2021/07/02 03:55:16;;;;;;;6.50;4.83;;;;;;;;;;5111197;27;21198;-75
2021/07/02 03:57:52;;;;;;;7.43;4.87;;;;;;;;;;5090538;27;20878;-75
2021/07/02 04:00:29;;;;;;;8.70;5.50;;;;;;;;;;5111850;27;21259;-75
2021/07/02 04:03:06;;;;;;;6.60;5.00;;;;;;;;;;5070236;28;20885;-74
2021/07/02 04:05:44;;;;;;;7.83;5.10;;;;;;;;;;5110947;27;21408;-75
2021/07/02 04:08:22;;;;;;;7.93;4.93;;;;;;;;;;5099448;27;21422;-75
2021/07/02 04:10:58;;;;;;;7.60;4.53;;;;;;;;;;5091158;27;20851;-75
2021/07/02 04:13:35;;;;;;;8.07;5.10;;;;;;;;;;5111079;27;20804;-75
2021/07/02 04:16:12;;;;;;;7.60;5.20;;;;;;;;;;5111468;27;21291;-75
2021/07/02 04:18:48;;;;;;;10.23;4.73;;;;;;;;;;5070876;28;20867;-75
2021/07/02 04:21:25;;;;;;;9.73;4.63;;;;;;;;;;5111391;27;20825;-75
2021/07/02 04:24:02;;;;;;;8.40;4.47;;;;;;;;;;5071040;28;21271;-74
2021/07/02 04:26:40;;;;;;;8.27;5.07;;;;;;;;;;5111371;27;21287;-74
2021/07/02 04:29:17;;;;;;;10.27;5.20;;;;;;;;;;5111049;27;20826;-74
2021/07/02 04:31:55;;;;;;;7.30;4.47;;;;;;;;;;5071289;28;20802;-75
2021/07/02 04:34:31;;;;;;;8.60;5.30;;;;;;;;;;5111322;27;20808;-74
2021/07/02 04:37:08;;;;;;;7.07;4.87;;;;;;;;;;5069768;28;21493;-74
2021/07/02 04:39:44;;;;;;;8.93;5.10;;;;;;;;;;5111310;27;20869;-74
2021/07/02 04:42:21;;;;;;;8.43;4.40;;;;;;;;;;5070254;28;20853;-75
2021/07/02 04:44:58;;;;;;;7.87;4.80;;;;;;;;;;5107305;27;20893;-74
2021/07/02 04:47:34;;;;;;;9.03;4.90;;;;;;;;;;5065704;28;20852;-75
2021/07/02 04:50:11;;;;;;;8.00;4.80;;;;;;;;;;5070686;28;21396;-74
2021/07/02 04:52:47;;;;;;;8.73;5.40;;;;;;;;;;5070640;28;20865;-74
2021/07/02 04:55:24;;;;;;;7.10;4.97;;;;;;;;;;5069836;28;20850;-75
2021/07/02 04:58:02;;;;;;;7.37;4.97;;;;;;;;;;5070894;28;20849;-75
2021/07/02 05:00:39;;;;;;;7.40;5.30;;;;;;;;;;5110822;27;21170;-75
2021/07/02 05:03:58;;;;;;;8.73;5.03;;;;;;;;;;5110139;27;21290;-74
2021/07/02 05:07:41;;;;;;;6.67;4.70;;;;;;;;;;5079173;28;20214;-74
2021/07/02 05:10:36;;;;;;;10.50;5.17;;;;;;;;;;5091201;27;24984;-75
2021/07/02 05:13:12;;;;;;;8.33;4.70;;;;;;;;;;5069665;28;20830;-74
2021/07/02 05:15:49;;;;;;;4.80;4.13;;;;;;;;;;5110845;27;20811;-74
2021/07/02 05:18:25;;;;;;;9.37;5.13;;;;;;;;;;5111277;27;20828;-74
2021/07/02 05:21:02;;;;;;;9.70;5.03;;;;;;;;;;5111823;27;20829;-75
2021/07/02 05:23:38;;;;;;;6.13;4.77;;;;;;;;;;5110638;27;20807;-74
2021/07/02 05:26:15;;;;;;;10.53;5.20;;;;;;;;;;5111270;27;20832;-74
2021/07/02 05:28:52;;;;;;;6.17;4.77;;;;;;;;;;5096672;27;20829;-74
2021/07/02 05:31:28;;;;;;;8.30;5.23;;;;;;;;;;5110680;27;20868;-74
2021/07/02 05:34:05;;;;;;;8.77;5.27;;;;;;;;;;5070260;28;20844;-75
2021/07/02 05:36:41;;;;;;;8.87;5.30;;;;;;;;;;5070302;28;20831;-74
2021/07/02 05:39:18;;;;;;;8.93;5.13;;;;;;;;;;5106392;27;21415;-74
2021/07/02 05:41:55;;;;;;;8.47;5.40;;;;;;;;;;5111449;27;20876;-74
2021/07/02 05:44:43;;;;;;;7.67;5.20;;;;;;;;;;5110810;27;21397;-74
2021/07/02 05:47:22;;;;;;;6.10;4.63;;;;;;;;;;5070948;28;21163;-74
2021/07/02 05:49:59;;;;;;;6.17;4.73;;;;;;;;;;5070225;28;20818;-74
2021/07/02 05:52:36;;;;;;;7.03;5.00;;;;;;;;;;5086127;28;21364;-74
2021/07/02 05:55:13;;;;;;;7.87;5.23;;;;;;;;;;5111082;27;20800;-75
2021/07/02 05:57:49;;;;;;;8.57;5.00;;;;;;;;;;5110845;27;20808;-75
2021/07/02 06:00:26;;;;;;;9.03;5.20;;;;;;;;;;5070238;28;20852;-74
2021/07/02 06:03:03;;;;;;;6.47;4.73;;;;;;;;;;5111207;27;20800;-75
2021/07/02 06:05:39;;;;;;;7.33;5.13;;;;;;;;;;5110440;27;20824;-75
2021/07/02 06:08:16;;;;;;;6.47;5.13;;;;;;;;;;5104430;27;20837;-75
2021/07/02 06:10:52;;;;;;;7.37;5.03;;;;;;;;;;5076673;28;20818;-75
2021/07/02 06:13:29;;;;;;;6.60;4.70;;;;;;;;;;5070357;28;21230;-75
2021/07/02 06:16:05;;;;;;;6.23;5.30;;;;;;;;;;5008137;28;20831;-75
2021/07/02 06:18:42;;;;;;;7.13;4.90;;;;;;;;;;5070722;28;20818;-75
2021/07/02 06:21:19;;;;;;;6.17;4.97;;;;;;;;;;5111896;27;20791;-75
2021/07/02 06:23:55;;;;;;;14.63;5.27;;;;;;;;;;5071177;28;20842;-75
2021/07/02 06:26:32;;;;;;;9.43;5.47;;;;;;;;;;5111844;27;20803;-75
2021/07/02 06:29:08;;;;;;;6.00;4.70;;;;;;;;;;5067623;28;20850;-75
2021/07/02 06:31:45;;;;;;;8.43;5.03;;;;;;;;;;5070475;28;20829;-75
2021/07/02 06:34:22;;;;;;;7.43;4.97;;;;;;;;;;5111288;27;20792;-75
2021/07/02 06:36:58;;;;;;;5.70;4.87;;;;;;;;;;5071299;28;21371;-74
2021/07/02 06:39:35;;;;;;;8.03;5.03;;;;;;;;;;5071178;28;20810;-74
2021/07/02 06:42:11;;;;;;;8.27;5.47;;;;;;;;;;5071330;28;20799;-75
2021/07/02 06:44:48;;;;;;;10.10;5.33;;;;;;;;;;5068263;28;21262;-75
2021/07/02 06:47:25;;;;;;;7.53;5.20;;;;;;;;;;5111697;27;20804;-76
2021/07/02 06:50:01;;;;;;;6.23;5.23;;;;;;;;;;5111195;27;21380;-75
2021/07/02 06:52:38;;;;;;;7.57;4.93;;;;;;;;;;5071220;28;21257;-74
2021/07/02 06:55:14;;;;;;;7.87;5.20;;;;;;;;;;5071342;28;20825;-75
2021/07/02 06:57:51;;;;;;;6.20;5.23;;;;;;;;;;5070949;28;20822;-75
2021/07/02 07:00:28;;;;;;;9.93;6.10;;;;;;;;;;5071246;28;20799;-75
2021/07/02 07:03:06;;;;;;;8.93;5.20;;;;;;;;;;5111810;27;20811;-75
2021/07/02 07:05:42;;;;;;;6.60;5.17;;;;;;;;;;5071227;28;20818;-75
2021/07/02 07:08:19;;;;;;;7.83;5.73;;;;;;;;;;5110991;27;20824;-75
2021/07/02 07:10:56;;;;;;;8.33;5.03;;;;;;;;;;5071195;28;20842;-75
2021/07/02 07:13:32;;;;;;;7.00;5.60;;;;;;;;;;5111453;27;20822;-74
2021/07/02 07:16:09;;;;;;;6.87;4.73;;;;;;;;;;5071309;28;20815;-74
2021/07/02 07:18:45;;;;;;;7.43;4.90;;;;;;;;;;5070570;28;20853;-75
2021/07/02 07:21:22;;;;;;;8.93;5.50;;;;;;;;;;5070614;28;20806;-75
2021/07/02 07:23:59;;;;;;;9.43;5.43;;;;;;;;;;5087680;27;20890;-75
2021/07/02 07:26:35;;;;;;;7.67;4.80;;;;;;;;;;5111509;27;20842;-75
2021/07/02 07:29:12;;;;;;;10.87;5.63;;;;;;;;;;5092452;27;20841;-74
2021/07/02 07:31:49;;;;;;;7.73;5.10;;;;;;;;;;5070952;28;20845;-74
2021/07/02 07:34:42;;;;;;;6.50;4.90;;;;;;;;;;5111179;27;20829;-75
2021/07/02 07:37:21;;;;;;;8.03;4.40;;;;;;;;;;5111197;27;20829;-74
2021/07/02 07:39:58;;;;;;;7.57;5.57;;;;;;;;;;5111138;27;20837;-75
2021/07/02 07:42:34;;;;;;;4.87;4.07;;;;;;;;;;5104804;27;21275;-75
2021/07/02 07:45:11;;;;;;;6.17;4.37;;;;;;;;;;5110639;27;20827;-74
2021/07/02 07:47:49;;;;;;;6.60;4.70;;;;;;;;;;5071211;28;20865;-75
2021/07/02 07:50:28;;;;;;;8.50;4.80;;;;;;;;;;5071274;28;20791;-75
2021/07/02 07:53:05;;;;;;;7.00;5.33;;;;;;;;;;5111026;27;20822;-74
2021/07/02 07:55:44;;;;;;;8.30;4.67;;;;;;;;;;5102484;27;20829;-75
2021/07/02 07:58:20;;;;;;;6.87;5.30;;;;;;;;;;5099667;27;20841;-75
2021/07/02 08:00:57;;;;;;;6.23;4.80;;;;;;;;;;5070289;28;20837;-74
2021/07/02 08:03:33;;;;;;;5.27;4.77;;;;;;;;;;5071154;28;20826;-74
2021/07/02 08:06:11;;;;;;;7.97;5.20;;;;;;;;;;5070810;28;20819;-74
2021/07/02 08:08:48;;;;;;;8.00;5.33;;;;;;;;;;5131363;27;20842;-74
2021/07/02 08:11:25;;;;;;;6.80;4.67;;;;;;;;;;5110515;27;20955;-74
2021/07/02 08:14:02;;;;;;;7.53;5.10;;;;;;;;;;5111235;27;20798;-75
2021/07/02 08:16:40;;;;;;;8.00;4.60;;;;;;;;;;5132363;27;20800;-75
2021/07/02 08:19:18;;;;;;;5.60;4.80;;;;;;;;;;5102139;27;20849;-74
2021/07/02 08:21:55;;;;;;;6.37;4.70;;;;;;;;;;5070554;28;20818;-75
2021/07/02 08:24:31;;;;;;;6.30;4.50;;;;;;;;;;5111792;27;20872;-74
2021/07/02 08:27:08;;;;;;;8.17;4.47;;;;;;;;;;5110677;27;20807;-74
2021/07/02 08:29:45;;;;;;;5.93;4.53;;;;;;;;;;5111364;27;20853;-74
2021/07/02 08:32:21;;;;;;;6.20;4.47;;;;;;;;;;5111023;27;20838;-74
2021/07/02 08:34:58;;;;;;;5.70;4.20;;;;;;;;;;5111686;27;20829;-74
2021/07/02 08:37:34;;;;;;;5.50;4.70;;;;;;;;;;5082353;28;20876;-74
2021/07/02 08:40:11;;;;;;;7.80;4.23;;;;;;;;;;5070116;28;20872;-74
2021/07/02 08:42:49;;;;;;;8.57;4.63;;;;;;;;;;5111154;27;20823;-74
2021/07/02 08:45:26;;;;;;;4.87;4.00;;;;;;;;;;5071331;28;20825;-74
2021/07/02 08:48:05;;;;;;;4.13;3.47;;;;;;;;;;5062280;28;21500;-74
2021/07/02 08:50:43;;;;;;;5.33;3.70;;;;;;;;;;5070214;28;20853;-74
2021/07/02 08:53:21;;;;;;;6.57;4.10;;;;;;;;;;5105430;27;20820;-75
2021/07/02 08:56:01;;;;;;;5.50;3.90;;;;;;;;;;5070814;28;20845;-74
2021/07/02 08:58:38;;;;;;;5.97;3.70;;;;;;;;;;5097455;27;21309;-73
2021/07/02 09:01:42;;;;;;;5.33;3.80;;;;;;;;;;5111485;27;20816;-73
2021/07/02 09:04:26;;;;;;;10.50;4.33;;;;;;;;;;5071300;28;20807;-73
2021/07/02 09:07:15;;;;;;;6.13;4.10;;;;;;;;;;5069725;28;21496;-73
2021/07/02 09:09:59;;;;;;;5.57;3.57;;;;;;;;;;5153129;27;20800;-74
2021/07/02 09:12:37;;;;;;;5.20;4.23;;;;;;;;;;5111481;27;20869;-73
2021/07/02 09:15:15;;;;;;;6.73;4.00;;;;;;;;;;5111436;27;20810;-72
2021/07/02 09:17:54;;;;;;;6.67;3.87;;;;;;;;;;5063418;28;20859;-73
2021/07/02 09:20:39;;;;;;;4.93;3.87;;;;;;;;;;5111110;27;20830;-74
2021/07/02 09:23:17;;;;;;;5.57;3.70;;;;;;;;;;5075374;28;20819;-74
2021/07/02 09:25:54;;;;;;;5.07;3.30;;;;;;;;;;5071231;28;20827;-73
2021/07/02 09:28:31;;;;;;;4.33;3.33;;;;;;;;;;5111371;27;20880;-74
2021/07/02 09:31:08;;;;;;;5.40;3.27;;;;;;;;;;5071229;28;21439;-74
2021/07/02 09:33:45;;;;;;;4.53;3.47;;;;;;;;;;5111829;27;20869;-74
2021/07/02 09:36:28;;;;;;;4.87;3.30;;;;;;;;;;5083024;28;20798;-74
2021/07/02 09:39:28;;;;;;;5.20;2.90;;;;;;;;;;5111845;27;20842;-74
2021/07/02 09:42:24;;;;;;;4.60;3.00;;;;;;;;;;5071322;28;20852;-74
2021/07/02 09:45:15;;;;;;;6.37;3.30;;;;;;;;;;5111876;27;20872;-74
2021/07/02 09:47:53;;;;;;;5.80;3.13;;;;;;;;;;5070953;28;20900;-74
2021/07/02 09:51:09;;;;;;;4.00;3.10;;;;;;;;;;5070888;28;20649;-73
2021/07/02 09:54:13;;;;;;;4.17;3.03;;;;;;;;;;5068650;28;20204;-73
2021/07/02 09:57:19;;;;;;;4.50;3.00;;;;;;;;;;5065452;28;20650;-73
2021/07/02 10:00:23;;;;;;;3.43;3.10;;;;;;;;;;5050992;28;20201;-73
2021/07/02 10:03:29;;;;;;;3.80;3.37;;;;;;;;;;5062501;23;20227;-74
2021/07/02 10:06:34;;;;;;;4.67;3.27;;;;;;;;;;5053126;28;20207;-74
2021/07/02 10:09:38;;;;;;;6.70;3.90;;;;;;;;;;5040989;28;20200;-74
2021/07/02 10:12:42;;;;;;;5.03;3.50;;;;;;;;;;5029577;28;20177;-74
2021/07/02 10:15:46;;;;;;;5.10;3.67;;;;;;;;;;5018410;28;20529;-73
2021/07/02 10:18:57;;;;;;;3.50;3.07;;;;;;;;;;5037437;28;20217;-74
2021/07/02 10:22:02;;;;;;;3.77;3.20;;;;;;;;;;5031320;28;20203;-72
2021/07/02 10:25:09;;;;;;;4.43;3.47;;;;;;;;;;5008969;28;20211;-74
2021/07/02 10:28:13;;;;;;;6.67;3.57;;;;;;;;;;5006535;28;20218;-73
2021/07/02 10:31:18;;;;;;;3.70;3.27;;;;;;;;;;5012654;28;20554;-74
2021/07/02 10:34:24;;;;;;;9.67;3.70;;;;;;;;;;5034280;28;20527;-74
2021/07/02 10:37:30;;;;;;;5.23;3.73;;;;;;;;;;5022632;28;20216;-74
2021/07/02 10:40:45;;;;;;;5.23;4.10;;;;;;;;;;5026282;28;20567;-74
2021/07/02 10:44:10;;;;;;;5.33;3.47;;;;;;;;;;5025541;28;20173;-73
2021/07/02 10:47:16;;;;;;;5.43;3.40;;;;;;;;;;5025455;28;20205;-73
2021/07/02 10:50:38;;;;;;;5.30;4.27;;;;;;;;;;5006787;28;20178;-73
2021/07/02 10:53:42;;;;;;;4.27;3.20;;;;;;;;;;4994352;28;20186;-74
2021/07/02 10:56:48;;;;;;;4.13;3.73;;;;;;;;;;5005475;28;20193;-74
2021/07/02 10:59:53;;;;;;;6.43;4.30;;;;;;;;;;4970122;28;20182;-74
2021/07/02 11:03:20;;;;;;;7.80;4.17;;;;;;;;;;4997784;28;20648;-75
2021/07/02 11:06:39;;;;;;;4.37;3.60;;;;;;;;;;4999877;28;20229;-74
2021/07/02 11:12:58;;;;;;;4.37;3.90;;;;;;;;;;5009263;28;20201;-71
2021/07/02 11:16:07;;;;;;;6.57;3.83;;;;;;;;;;5020185;28;20185;-72
2021/07/02 11:19:37;;;;;;;4.93;3.63;;;;;;;;;;5002167;28;20221;-72
2021/07/02 11:23:01;;;;;;;7.17;3.90;;;;;;;;;;5012633;28;20189;-71
2021/07/02 11:26:07;;;;;;;4.97;3.83;;;;;;;;;;5011843;28;20194;-72
2021/07/02 11:29:11;;;;;;;9.47;3.50;;;;;;;;;;5011390;28;20231;-71
2021/07/02 11:32:31;;;;;;;4.03;3.10;;;;;;;;;;4981625;28;20193;-70
2021/07/02 11:36:11;;;;;;;5.47;3.60;;;;;;;;;;5007728;28;20996;-71
2021/07/02 11:39:17;;;;;;;5.70;3.40;;;;;;;;;;4976436;28;20227;-71
2021/07/02 11:42:21;;;;;;;3.60;2.83;;;;;;;;;;4997901;28;20205;-71
2021/07/02 11:45:53;;;;;;;3.47;2.92;;;;;;;;;;4987217;28;20198;-71
2021/07/02 11:48:59;;;;;;;5.38;3.55;;;;;;;;;;5009588;28;20223;-71
2021/07/02 11:52:03;;;;;;;5.70;3.50;;;;;;;;;;5012043;28;20186;-71
2021/07/02 11:55:08;;;;;;;6.50;3.60;;;;;;;;;;5011199;28;20202;-71
2021/07/02 11:58:20;;;;;;;6.17;3.60;;;;;;;;;;5011997;28;20219;-71
2021/07/02 12:01:40;;;;;;;5.27;3.73;;;;;;;;;;5015530;28;20180;-71
2021/07/02 12:04:44;;;;;;;4.27;3.67;;;;;;;;;;4995747;28;20210;-70
2021/07/02 12:07:48;;;;;;;5.23;3.80;;;;;;;;;;4993507;28;20687;-71
2021/07/02 12:11:03;;;;;;;6.53;3.77;;;;;;;;;;4995198;28;20181;-77
2021/07/02 12:14:10;;;;;;;5.90;3.83;;;;;;;;;;4984672;28;20243;-76
2021/07/02 12:17:14;;;;;;;4.80;3.70;;;;;;;;;;4992589;28;20195;-77
2021/07/02 12:20:20;;;;;;;5.90;3.53;;;;;;;;;;4983588;28;20181;-77
2021/07/02 12:23:29;;;;;;;4.70;4.20;;;;;;;;;;4998461;28;20196;-77
2021/07/02 12:26:35;;;;;;;6.73;3.90;;;;;;;;;;4962202;28;20208;-77
2021/07/02 12:29:41;;;;;;;7.23;3.87;;;;;;;;;;5001366;28;20188;-77
2021/07/02 12:32:45;;;;;;;4.90;3.40;;;;;;;;;;4986150;28;20193;-77
2021/07/02 12:35:50;;;;;;;3.83;3.30;;;;;;;;;;5013171;28;20210;-77
2021/07/02 12:39:06;;;;;;;5.97;3.90;;;;;;;;;;5003109;28;20223;-77
2021/07/02 12:42:12;;;;;;;5.80;4.23;;;;;;;;;;5002834;28;20526;-77
2021/07/02 12:45:17;;;;;;;9.03;4.03;;;;;;;;;;5001201;28;20541;-77
2021/07/02 12:48:26;;;;;;;4.30;3.77;;;;;;;;;;5001948;28;20222;-77
2021/07/02 12:51:34;;;;;;;6.03;3.60;;;;;;;;;;4982948;28;20528;-77
2021/07/02 12:54:48;;;;;;;6.33;3.67;;;;;;;;;;4994779;28;20532;-77
2021/07/02 12:57:53;;;;;;;5.33;3.77;;;;;;;;;;4999165;28;20225;-76
2021/07/02 13:01:06;;;;;;;5.50;4.00;;;;;;;;;;4986885;28;20211;-77
2021/07/02 13:04:10;;;;;;;4.00;3.13;;;;;;;;;;4995447;28;20220;-76
2021/07/02 13:07:14;;;;;;;6.20;3.70;;;;;;;;;;4990850;28;20219;-77
2021/07/02 13:10:21;;;;;;;9.40;3.80;;;;;;;;;;5002698;28;20182;-77
2021/07/02 13:13:35;;;;;;;7.00;3.37;;;;;;;;;;4985600;28;20537;-76
2021/07/02 13:16:48;;;;;;;4.30;3.47;;;;;;;;;;4983522;28;20205;-76
2021/07/02 13:19:55;;;;;;;4.20;3.63;;;;;;;;;;5012853;28;20656;-76
2021/07/02 13:23:02;;;;;;;6.50;3.57;;;;;;;;;;4994288;28;20174;-77
2021/07/02 13:26:14;;;;;;;6.00;4.18;;;;;;;;;;4994463;28;20187;-76
2021/07/02 13:29:18;;;;;;;4.45;3.72;;;;;;;;;;4984054;28;20223;-76
2021/07/02 13:32:24;;;;;;;5.63;3.60;;;;;;;;;;5001609;28;20200;-76
2021/07/02 13:35:29;;;;;;;11.40;3.80;;;;;;;;;;5013882;28;20179;-76
2021/07/02 13:38:33;;;;;;;4.87;3.70;;;;;;;;;;5000862;28;20215;-76
2021/07/02 13:41:39;;;;;;;7.67;4.33;;;;;;;;;;4999073;28;20198;-76
2021/07/02 13:44:52;;;;;;;5.47;3.60;;;;;;;;;;4994014;28;20189;-76
2021/07/02 13:48:10;;;;;;;5.40;3.90;;;;;;;;;;5008051;28;20226;-77
2021/07/02 13:51:14;;;;;;;5.87;3.80;;;;;;;;;;5001423;28;20223;-76
2021/07/02 13:54:19;;;;;;;4.43;3.60;;;;;;;;;;5013504;28;20198;-75
2021/07/02 13:57:24;;;;;;;6.40;4.00;;;;;;;;;;5011424;28;20623;-76
2021/07/02 14:00:28;;;;;;;4.23;3.47;;;;;;;;;;4978307;28;20183;-76
2021/07/02 14:03:32;;;;;;;6.68;3.15;;;;;;;;;;4973217;28;20545;-76
2021/07/02 14:06:40;;;;;;;8.67;3.53;;;;;;;;;;4977398;28;20201;-77
2021/07/02 14:09:44;;;;;;;8.43;3.60;;;;;;;;;;5013388;28;20212;-77
2021/07/02 14:12:49;;;;;;;7.13;3.40;;;;;;;;;;5013620;28;20183;-76
2021/07/02 14:15:53;;;;;;;4.78;3.97;;;;;;;;;;4996249;28;20193;-76
2021/07/02 14:18:57;;;;;;;3.17;2.88;;;;;;;;;;4977986;28;20226;-76
2021/07/02 14:22:02;;;;;;;4.57;3.10;;;;;;;;;;5006379;28;20200;-76
2021/07/02 14:25:07;;;;;;;4.10;3.00;;;;;;;;;;5012108;28;20205;-76
2021/07/02 14:28:11;;;;;;;4.53;3.47;;;;;;;;;;4983805;28;20232;-76
2021/07/02 14:31:15;;;;;;;5.00;3.60;;;;;;;;;;5009458;28;20208;-76
2021/07/02 14:34:19;;;;;;;5.47;3.10;;;;;;;;;;5012754;28;20201;-76
2021/07/02 14:37:23;;;;;;;4.18;3.25;;;;;;;;;;5014262;28;20183;-77
2021/07/02 14:40:27;;;;;;;6.93;3.33;;;;;;;;;;4985367;28;20637;-76
2021/07/02 14:43:31;;;;;;;4.40;3.28;;;;;;;;;;5001651;28;20211;-76
2021/07/02 14:46:35;;;;;;;5.05;3.50;;;;;;;;;;4995754;28;20201;-76
2021/07/02 14:49:42;;;;;;;4.40;3.10;;;;;;;;;;5008535;28;20185;-77
2021/07/02 14:52:47;;;;;;;5.07;3.88;;;;;;;;;;4962726;28;20176;-76
2021/07/02 14:55:51;;;;;;;5.85;4.07;;;;;;;;;;4999170;28;20519;-77
2021/07/02 14:58:55;;;;;;;5.95;3.53;;;;;;;;;;5016606;28;20693;-77
2021/07/02 15:01:59;;;;;;;5.28;3.63;;;;;;;;;;5017142;28;20179;-76
2021/07/02 15:05:04;;;;;;;3.60;3.30;;;;;;;;;;5013843;28;20630;-76
2021/07/02 15:08:08;;;;;;;6.70;3.85;;;;;;;;;;5001109;28;20240;-76
2021/07/02 15:11:12;;;;;;;4.15;3.45;;;;;;;;;;5000677;28;20193;-77
2021/07/02 15:14:16;;;;;;;3.47;3.10;;;;;;;;;;5000544;28;20189;-76
2021/07/02 15:17:21;;;;;;;4.95;3.40;;;;;;;;;;4988956;28;20185;-76
2021/07/02 15:20:25;;;;;;;3.38;3.08;;;;;;;;;;5000539;28;20186;-77
2021/07/02 15:23:30;;;;;;;6.53;3.38;;;;;;;;;;5012664;28;20187;-76
2021/07/02 15:26:38;;;;;;;6.05;3.63;;;;;;;;;;5012315;28;20200;-76
2021/07/02 15:30:19;;;;;;;4.07;3.40;;;;;;;;;;4999771;28;20204;-76
2021/07/02 15:33:24;;;;;;;3.67;3.38;;;;;;;;;;5012314;28;20261;-76
2021/07/02 15:36:28;;;;;;;4.20;3.03;;;;;;;;;;5012626;28;20205;-76
2021/07/02 15:39:32;;;;;;;4.40;3.35;;;;;;;;;;4988895;28;20223;-76
2021/07/02 15:42:38;;;;;;;3.50;3.20;;;;;;;;;;4988720;28;20184;-76
2021/07/02 15:45:42;;;;;;;5.00;3.70;;;;;;;;;;4999950;28;20183;-75
2021/07/02 15:48:46;;;;;;;3.42;3.00;;;;;;;;;;4999644;28;20238;-76
2021/07/02 15:51:50;;;;;;;4.53;3.20;;;;;;;;;;4999682;28;20183;-76
2021/07/02 15:54:55;;;;;;;5.95;3.78;;;;;;;;;;5011984;28;20185;-75
2021/07/02 15:57:59;;;;;;;4.00;3.17;;;;;;;;;;4999712;28;20221;-76
2021/07/02 16:01:03;;;;;;;11.68;4.30;;;;;;;;;;5011825;28;20201;-75
2021/07/02 16:04:08;;;;;;;5.23;3.30;;;;;;;;;;5011635;28;20224;-75
2021/07/02 16:07:13;;;;;;;4.87;3.30;;;;;;;;;;5020064;23;20226;-83
2021/07/02 16:10:17;;;;;;;3.93;3.17;;;;;;;;;;5011471;28;20196;-84
2021/07/02 16:13:21;;;;;;;4.83;3.63;;;;;;;;;;5014410;28;20179;-84
2021/07/02 16:16:25;;;;;;;6.13;3.23;;;;;;;;;;5024330;28;20184;-84
2021/07/02 16:19:29;;;;;;;5.43;3.80;;;;;;;;;;5004101;28;20180;-84
2021/07/02 16:22:33;;;;;;;4.50;3.30;;;;;;;;;;4992596;28;20199;-83
2021/07/02 16:25:37;;;;;;;29.63;4.90;;;;;;;;;;4992718;28;20184;-84
2021/07/02 16:28:41;;;;;;;7.17;3.60;;;;;;;;;;4992098;28;20227;-83
2021/07/02 16:31:47;;;;;;;5.97;3.60;;;;;;;;;;5014874;28;20191;-84
2021/07/02 16:34:51;;;;;;;7.23;3.53;;;;;;;;;;5015091;28;20195;-84
2021/07/02 16:37:55;;;;;;;4.97;4.07;;;;;;;;;;4992696;28;20209;-83
2021/07/02 16:40:59;;;;;;;4.57;3.47;;;;;;;;;;5004274;28;20197;-84
2021/07/02 16:44:03;;;;;;;4.47;3.53;;;;;;;;;;5015251;28;20193;-84
2021/07/02 16:47:09;;;;;;;5.17;3.10;;;;;;;;;;5003829;28;20220;-84
2021/07/02 16:50:13;;;;;;;4.60;3.70;;;;;;;;;;4994197;28;20181;-84
2021/07/02 16:53:19;;;;;;;7.83;3.83;;;;;;;;;;5004363;28;20240;-84
2021/07/02 16:56:23;;;;;;;5.87;3.93;;;;;;;;;;5015926;28;20177;-84
2021/07/02 16:59:29;;;;;;;10.67;3.97;;;;;;;;;;4995014;28;20190;-85
2021/07/02 17:02:34;;;;;;;4.23;3.70;;;;;;;;;;4994665;28;20181;-85
2021/07/02 17:05:38;;;;;;;3.87;3.13;;;;;;;;;;4994995;28;20562;-85
2021/07/02 17:08:42;;;;;;;5.03;3.10;;;;;;;;;;4994800;28;20225;-85
2021/07/02 17:11:47;;;;;;;4.80;3.40;;;;;;;;;;4995500;28;20182;-85
2021/07/02 17:14:51;;;;;;;10.47;3.90;;;;;;;;;;5018642;28;20199;-85
2021/07/02 17:17:55;;;;;;;5.53;3.73;;;;;;;;;;5006904;28;20217;-85